FQCH

Chimoio Airport

Chimoio, Mozambique
METAR FQCH 202000Z VRB02KT CAVOK 27/10 Q1023
Observed Flight Rules
Aug-20 @ 20:00 UTC (29 minutes ago) Visual Flight Rules
Wind Visibility Clouds
Variable at 2 knots 10,000+ meters
  • Clear skies
Temperatures Readings
Current 27°C / 81°F
Dewpoint 10°C / 50°F
Humidity 34%
Altimeter 30.21" Hg
Pressure 1023 hPa
Elevation 732
METAR FQCH 202000Z VRB02KT CAVOK 27/10 Q1023
Observed Flight Rules
Aug-20 @ 20:00 UTC
(29 minutes ago)
VFR
Wind Visibility
Variable at 2 knots 10,000+ meters
Clouds
  • Clear skies
Temperature Dewpoint
27°C / 81°F 10°C / 50°F
Humidity Altimeter Pressure
34% 30.21" Hg 1023 hPa